• Join FlightAware (Why Join?)
  • Login
  • US Flag 
05:30AM EDT


 

Airport Tracker/Info


-or-


 

Live Flight TrackerFlight Track Log ✈ SWA2854 ✈ 06-Jan-2014 ✈ KLAS - KMSY

Flight Track Log - Related Links

Times and Time Zones

All times are in EST time to prevent confusion due to time zone crossing. See the SWA2854 flight status page for this flight to view local times or setup timezone preferences in your user account.

Time Position Orientation Groundspeed Altitude Reporting Facility
EST Latitude Longitude Course Direction KTS MPH feet Rate Location/Type
10:08PM 36.0761 -115.1683 99° East 164 189 3,200  Level Los Angeles Center
10:09PM 36.0750 -115.1925 267° West 167 192 4,000 2,040 Climbing Los Angeles Center
10:10PM 36.0550 -115.2603 250° West 238 274 6,100 1,980 Climbing Los Angeles Center
10:10PM 36.0525 -115.2628 219° Southwest 238 274 6,300 960 Climbing Los Angeles Center
10:11PM 35.9867 -115.2933 201° Southwest 284 327 7,100 780 Climbing Los Angeles Center
10:11PM 35.9753 -115.2936 181° South 279 321 7,100 2,160 Level Los Angeles Center
10:12PM 35.9308 -115.2347 133° Southeast 282 325 9,300 2,520 Climbing Los Angeles Center
10:12PM 35.9331 -115.2239 76° East 284 327 9,700 2,520 Climbing Los Angeles Center
10:13PM 35.9314 -115.1181 91° East 316 364 12,200 2,940 Climbing Los Angeles Center
10:14PM 35.9570 -114.2338 99° East  Level Estimated
10:14PM 35.9314 -114.9861 90° East 360 414 15,800  Level Los Angeles Center
10:15PM 35.9308 -114.8778 90° East 369 425 18,200 2,640 Climbing Los Angeles Center
10:16PM 35.9303 -114.7142 90° East 394 453 21,300 2,340 Climbing Los Angeles Center
10:17PM 35.9292 -114.5692 90° East 415 478 23,100 1,980 Climbing Los Angeles Center
10:18PM 35.9278 -114.4203 91° East 430 495 25,400 2,040 Climbing Los Angeles Center
10:19PM 35.9286 -114.2650 90° East 446 513 27,300 1,800 Climbing Los Angeles Center
10:20PM 35.9289 -114.1053 90° East 460 529 29,200 1,800 Climbing Los Angeles Center
10:21PM 35.9267 -113.9419 91° East 472 543 31,000 1,800 Climbing Los Angeles Center
10:22PM 35.9261 -113.7769 90° East 480 552 32,900 1,920 Climbing Los Angeles Center
10:23PM 35.9253 -113.6144 90° East 477 549 35,000 1,740 Climbing Los Angeles Center
10:24PM 35.9228 -113.4539 91° East 475 547 36,500 960 Climbing Los Angeles Center
10:25PM 35.9217 -113.2617 90° East 469 540 37,000 240 Climbing Los Angeles Center
10:26PM 35.9194 -113.1006 91° East 468 539 37,000 180 Level Los Angeles Center
10:27PM 35.9175 -112.9394 91° East 469 540 37,400 720 Climbing Los Angeles Center
10:28PM 35.9158 -112.7769 91° East 471 542 38,500 780 Climbing Los Angeles Center
10:29PM 35.9139 -112.6122 91° East 475 547 39,000 240 Climbing Los Angeles Center
10:30PM 35.9100 -112.4511 92° East 474 545 39,000  Level Los Angeles Center
10:31PM 35.9072 -112.2889 91° East 472 543 39,000  Level Los Angeles Center
10:32PM 35.9042 -112.1269 91° East 474 545 39,000  Level Los Angeles Center
10:33PM 35.9017 -111.9650 91° East 473 544 39,000  Level Los Angeles Center
10:34PM 35.8958 -111.7747 92° East 465 535 39,000  Level Los Angeles Center
10:35PM 35.8900 -111.6164 93° East 465 535 39,000  Level Los Angeles Center
10:36PM 35.8642 -111.4767 103° East 465 535 39,000  Level Los Angeles Center
10:37PM 35.8344 -111.2931 101° East 465 535 39,000  Level Albuquerque Center
10:38PM 35.8083 -111.1431 102° East 468 539 39,000  Level Albuquerque Center
10:39PM 35.7806 -110.9925 103° East 470 541 39,000  Level Albuquerque Center
10:40PM 35.7500 -110.8169 102° East 470 541 39,000  Level Albuquerque Center
10:41PM 35.7222 -110.6658 103° East 472 543 39,000  Level Albuquerque Center
10:42PM 35.6911 -110.4917 102° East 469 540 39,000  Level Albuquerque Center
10:43PM 35.6642 -110.3431 103° East 468 539 39,000  Level Albuquerque Center
10:44PM 35.6381 -110.1942 102° East 467 537 39,000  Level Albuquerque Center
10:45PM 35.6072 -110.0206 102° East 467 537 39,000  Level Albuquerque Center
10:46PM 35.5792 -109.8706 103° East 470 541 39,000  Level Albuquerque Center
10:48PM 35.5517 -109.7217 103° East 469 540 39,000  Level Albuquerque Center
10:49PM 35.5197 -109.5472 103° East 470 541 39,000  Level Albuquerque Center
10:50PM 35.4906 -109.3947 103° East 475 547 39,000  Level Albuquerque Center
10:51PM 35.4567 -109.2189 103° East 478 550 39,000  Level Albuquerque Center
10:52PM 35.4281 -109.0694 103° East 475 547 39,000  Level Albuquerque Center
10:53PM 35.3992 -108.9197 103° East 475 547 39,000  Level Albuquerque Center
10:54PM 35.3650 -108.7453 103° East 474 545 39,000  Level Albuquerque Center
10:55PM 35.3353 -108.5958 104° East 474 545 39,000  Level Albuquerque Center
10:56PM 35.3017 -108.4208 103° East 474 545 39,000  Level Albuquerque Center
10:57PM 35.2728 -108.2717 103° East 473 544 39,000  Level Albuquerque Center
10:58PM 35.2425 -108.1244 104° East 469 540 39,000  Level Albuquerque Center
10:59PM 35.2078 -107.9519 104° East 470 541 39,000  Level Albuquerque Center
11:00PM 35.1781 -107.8050 104° East 467 537 39,000  Level Albuquerque Center
11:01PM 35.1419 -107.6339 104° East 467 537 39,000  Level Albuquerque Center
11:02PM 35.1108 -107.4797 104° East 473 544 39,000  Level Albuquerque Center
11:03PM 35.0744 -107.3119 105° East 477 549 39,000  Level Albuquerque Center
11:04PM 35.0417 -107.1581 105° East 471 542 39,000  Level Albuquerque Center
11:05PM 35.0097 -107.0042 104° East 471 542 39,000  Level Albuquerque Center
11:06PM 34.9758 -106.8428 104° East 469 540 39,000  Level Albuquerque Center
11:07PM 34.9489 -106.7147 104° East 460 529 39,000  Level Albuquerque Center
11:08PM 34.9153 -106.5636 105° East 463 533 39,000  Level Albuquerque Center
11:09PM 34.8736 -106.3781 105° East 472 543 39,000  Level Albuquerque Center
11:10PM 34.8408 -106.2272 105° East 467 537 39,000  Level Albuquerque Center
11:11PM 34.8078 -106.0756 105° East 466 536 39,000  Level Albuquerque Center
11:12PM 34.7750 -105.9236 105° East 466 536 39,000  Level Albuquerque Center
11:13PM 34.7414 -105.7767 106° East 459 528 39,000  Level Albuquerque Center
11:14PM 34.7072 -105.6264 105° East 458 527 39,000  Level Albuquerque Center
11:15PM 34.6731 -105.4756 105° East 459 528 39,000  Level Albuquerque Center
11:16PM 34.6397 -105.3272 105° East 455 524 39,000  Level Albuquerque Center
11:17PM 34.5997 -105.1525 105° East 457 526 39,000  Level Albuquerque Center
11:18PM 34.5656 -105.0022 105° East 459 528 39,000  Level Albuquerque Center
11:19PM 34.5314 -104.8528 105° East 458 527 39,000  Level Albuquerque Center
11:20PM 34.4958 -104.7017 106° East 462 532 39,000  Level Albuquerque Center
11:21PM 34.4614 -104.5511 105° East 462 532 39,000  Level Albuquerque Center
11:22PM 34.4250 -104.3989 106° East 467 537 39,000  Level Albuquerque Center
11:23PM 34.3892 -104.2478 106° East 465 535 39,000  Level Albuquerque Center
11:24PM 34.3539 -104.0961 106° East 466 536 39,000  Level Albuquerque Center
11:25PM 34.3172 -103.9475 107° East 462 532 39,000  Level Albuquerque Center
11:26PM 34.2814 -103.7986 106° East 459 528 39,000  Level Albuquerque Center
11:27PM 34.2444 -103.6481 106° East 463 533 39,000  Level Albuquerque Center
11:28PM 34.2086 -103.4983 106° East 463 533 39,000  Level Albuquerque Center
11:29PM 34.1719 -103.3497 107° East 461 531 39,000  Level Albuquerque Center
11:30PM 34.1292 -103.1753 106° East 463 533 39,000  Level Albuquerque Center
11:31PM 34.0914 -103.0281 107° East 459 528 39,000  Level Albuquerque Center
11:32PM 34.0561 -102.8850 107° East 462 532 39,000  Level Albuquerque Center
11:33PM 34.0172 -102.7381 108° East 462 532 39,000  Level Albuquerque Center
11:34PM 33.9808 -102.5850 106° East 469 540 39,000  Level Albuquerque Center
11:36PM 33.9108 -102.3153 107° East 469 540 39,000  Level Fort Worth Center
11:37PM 33.8733 -102.1661 107° East 468 539 39,000  Level Fort Worth Center
11:38PM 33.8353 -102.0186 107° East 463 533 39,000  Level Fort Worth Center
11:39PM 33.7972 -101.8711 107° East 463 533 39,000  Level Fort Worth Center
11:40PM 33.7589 -101.7233 107° East 465 535 39,000  Level Fort Worth Center
11:41PM 33.7200 -101.5767 108° East 463 533 39,000  Level Fort Worth Center
11:42PM 33.6819 -101.4303 107° East 463 533 39,000  Level Fort Worth Center
11:43PM 33.6383 -101.2647 108° East 465 535 39,000  Level Fort Worth Center
11:44PM 33.5981 -101.1172 108° East 464 534 39,000  Level Fort Worth Center
11:45PM 33.5583 -100.9689 108° East 467 537 39,000  Level Fort Worth Center
11:46PM 33.5178 -100.8203 108° East 468 539 39,000  Level Fort Worth Center
11:47PM 33.4781 -100.6719 108° East 468 539 39,000  Level Fort Worth Center
11:48PM 33.4381 -100.5228 108° East 470 541 39,000  Level Fort Worth Center
11:49PM 33.3958 -100.3747 109° East 469 540 39,000  Level Fort Worth Center
11:50PM 33.3550 -100.2256 108° East 469 540 39,000  Level Fort Worth Center
11:51PM 33.3142 -100.0758 108° East 471 542 39,000  Level Fort Worth Center
11:52PM 33.2719 -99.9258 109° East 473 544 39,000  Level Fort Worth Center
11:53PM 33.2289 -99.7739 109° East 479 551 39,000  Level Fort Worth Center
11:54PM 33.1872 -99.6228 108° East 478 550 39,000  Level Fort Worth Center
11:55PM 33.1431 -99.4686 109° East 486 559 39,000  Level Fort Worth Center
11:56PM 33.0997 -99.3175 109° East 481 554 39,000  Level Fort Worth Center
11:57PM 33.0561 -99.1647 109° East 482 555 39,000  Level Fort Worth Center
11:59PM 33.0119 -99.0131 109° East 486 559 39,000  Level Fort Worth Center
12:00AM 32.9692 -98.8625 109° East 480 552 39,000  Level Fort Worth Center
12:01AM 32.9253 -98.7139 109° East 476 548 39,000  Level Fort Worth Center
12:02AM 32.8814 -98.5653 109° East 472 543 39,000  Level Fort Worth Center
12:03AM 32.8297 -98.3889 109° East 477 549 39,000  Level Fort Worth Center
12:04AM 32.7858 -98.2411 109° East 473 544 39,000  Level Fort Worth Center
12:05AM 32.7414 -98.0936 110° East 474 545 39,000  Level Fort Worth Center
12:06AM 32.6975 -97.9450 109° East 478 550 39,000  Level Fort Worth Center
12:07AM 32.6528 -97.7989 110° East 474 545 39,000  Level Fort Worth Center
12:08AM 32.6092 -97.6514 109° East 477 549 39,000  Level Fort Worth Center
12:09AM 32.5642 -97.5042 110° East 479 551 39,000  Level Fort Worth Center
12:10AM 32.5203 -97.3572 109° East 478 550 39,000  Level Fort Worth Center
12:11AM 32.4750 -97.2097 110° East 481 554 39,000  Level Fort Worth Center
12:12AM 32.4214 -97.0369 110° East 473 544 39,000  Level Fort Worth Center
12:13AM 32.3764 -96.8897 110° East 477 549 39,000  Level Fort Worth Center
12:14AM 32.3311 -96.7433 110° East 477 549 39,000  Level Fort Worth Center
12:15AM 32.2867 -96.5992 110° East 473 544 39,000  Level Fort Worth Center
12:16AM 32.2400 -96.4525 111° Southeast 476 548 39,100  Climbing Fort Worth Center
12:17AM 32.1944 -96.3042 110° East 481 554 39,000 -60 Descending Fort Worth Center
12:18AM 32.1467 -96.1553 111° Southeast 484 557 39,000  Level Fort Worth Center
12:19AM 32.1006 -96.0064 110° East 485 558 39,000  Level Fort Worth Center
12:20AM 32.0525 -95.8589 111° Southeast 485 558 39,000  Level Fort Worth Center
12:21AM 32.0058 -95.7086 110° East 488 562 39,000  Level Fort Worth Center
12:22AM 31.9486 -95.5369 111° Southeast 491 565 39,000  Level Fort Worth Center
12:23AM 31.9006 -95.3842 110° East 496 571 39,000  Level Fort Worth Center
12:24AM 31.8506 -95.2328 111° Southeast 495 570 39,000  Level Fort Worth Center
12:25AM 31.8006 -95.0789 111° Southeast 500 575 39,000  Level Fort Worth Center
12:26AM 31.7508 -94.9281 111° Southeast 495 570 39,000  Level Fort Worth Center
12:27AM 31.6997 -94.7764 112° Southeast 495 570 39,000  Level Fort Worth Center
12:28AM 31.6506 -94.6253 111° Southeast 492 566 39,000  Level Fort Worth Center
12:29AM 31.5989 -94.4747 112° Southeast 492 566 39,000  Level Fort Worth Center
12:30AM 31.5492 -94.3233 111° Southeast 493 567 39,100  Climbing Fort Worth Center
12:31AM 31.4992 -94.1725 111° Southeast 494 568 39,000 -60 Descending Fort Worth Center
12:32AM 31.4475 -94.0186 111° Southeast 500 575 39,000  Level Fort Worth Center
12:33AM 31.3953 -93.8644 112° Southeast 505 581 39,000  Level Fort Worth Center
12:34AM 31.3311 -93.6817 112° Southeast 503 579 39,000  Level Houston Center
12:35AM 31.2842 -93.5569 114° Southeast 503 579 39,000  Level Houston Center
12:36AM 31.2250 -93.4033 114° Southeast 507 583 39,000  Level Houston Center
12:37AM 31.1675 -93.2514 114° Southeast 509 586 39,000  Level Houston Center
12:38AM 31.1111 -93.0992 113° Southeast 509 586 39,000  Level Houston Center
12:39AM 31.0519 -92.9472 114° Southeast 511 588 39,000  Level Houston Center
12:40AM 30.9883 -92.7775 114° Southeast 506 582 39,000  Level Houston Center
12:41AM 30.9322 -92.6303 114° Southeast 505 581 39,000 -660 Level Houston Center
12:42AM 30.8747 -92.4817 114° Southeast 508 585 37,700 -1,920 Descending Houston Center
12:43AM 30.8181 -92.3356 114° Southeast 502 578 35,200 -2,760 Descending Houston Center
12:44AM 30.7606 -92.1878 114° Southeast 504 580 32,200 -2,820 Descending Houston Center
12:45AM 30.7039 -92.0417 114° Southeast 501 577 29,600 -2,460 Descending Houston Center
12:46AM 30.6489 -91.8969 114° Southeast 494 568 27,300 -2,280 Descending Houston Center
12:47AM 30.5939 -91.7600 115° Southeast 473 544 25,100 -2,160 Descending Houston Center
12:48AM 30.5417 -91.6269 114° Southeast 458 527 23,000 -2,040 Descending Houston Center
12:49AM 30.4933 -91.5000 114° Southeast 437 503 21,000 -2,100 Descending Houston Center
12:50AM 30.4381 -91.3644 115° Southeast 422 486 18,800 -1,380 Descending Houston Center
12:51AM 30.3919 -91.2444 114° Southeast 412 474 18,300 -1,380 Descending Houston Center
12:52AM 30.3689 -91.1897 116° Southeast 412 474 16,900 -2,700 Descending Houston Center
12:52AM 30.3436 -91.1247 114° Southeast 412 474 15,600 -2,460 Descending Houston Center
12:53AM 30.3133 -91.0519 116° Southeast 413 475 14,200 -2,280 Descending Houston Center
12:53AM 30.2964 -91.0044 112° Southeast 412 474 13,300 -2,700 Descending Houston Center
12:54AM 30.2644 -90.9356 118° Southeast 403 464 11,500 -2,340 Descending Houston Center
12:54AM 30.2439 -90.8911 118° Southeast 402 463 11,000 -540 Descending Houston Center
12:55AM 30.2158 -90.8289 118° Southeast 362 417 11,000  Level Houston Center
12:55AM 30.2003 -90.7917 116° Southeast 358 412 11,000 -1,320 Level Houston Center
12:56AM 30.1758 -90.7389 118° Southeast 300 345 9,700 -2,220 Descending Houston Center
12:56AM 30.1608 -90.7050 117° Southeast 314 361 8,800 -2,220 Descending Houston Center
12:57AM 30.1381 -90.6536 117° Southeast 295 339 7,500 -2,220 Descending Houston Center
12:57AM 30.1242 -90.6203 116° Southeast 304 350 6,600 -2,100 Descending Houston Center
12:58AM 30.1025 -90.5733 118° Southeast 282 325 5,400 -1,980 Descending Houston Center
12:58AM 30.0886 -90.5414 117° Southeast 292 336 4,600 -1,800 Descending Houston Center
12:59AM 30.0711 -90.5022 117° Southeast 258 297 3,800 -1,320 Descending Houston Center
12:59AM 30.0564 -90.4708 118° Southeast 274 315 3,300 -1,260 Descending Houston Center
01:00AM 30.0467 -90.4481 116° Southeast 225 259 2,800 -1,200 Descending Houston Center
01:00AM 30.0292 -90.4106 118° Southeast 243 280 2,100 -1,020 Descending Houston Center
01:01AM 30.0219 -90.3889 111° Southeast 192 221 1,800 -840 Descending Houston Center
01:01AM 30.0142 -90.3569 106° East 208 239 1,300 -720 Descending Houston Center
01:02AM 30.0100 -90.3414 107° East 140 161 1,100 -600 Descending Houston Center
01:02AM 30.0039 -90.3108 103° East 173 199 700 -720 Descending Houston Center
01:03AM 30.0003 -90.2986 109° East 135 155 400 -1,140 Descending Houston Center